createdAt,value
2023-05-19T05:01:12.985Z,25.00
2023-05-19T05:02:13.057Z,25.00
2023-05-19T05:03:13.056Z,25.00
2023-05-19T05:04:13.065Z,25.00
2023-05-19T05:05:12.953Z,25.00
2023-05-19T05:06:12.980Z,25.00
2023-05-19T05:07:13.085Z,0.00
2023-05-19T05:08:13.058Z,0.00
2023-05-19T05:09:13.081Z,0.00
2023-05-19T05:10:13.083Z,0.00
2023-05-19T05:11:13.092Z,0.00
2023-05-19T05:12:13.125Z,0.00
2023-05-19T05:13:13.172Z,0.00
2023-05-19T05:14:13.180Z,0.00
2023-05-19T05:15:13.176Z,0.00
2023-05-19T05:16:13.248Z,0.00
2023-05-19T05:17:13.328Z,0.00
2023-05-19T05:18:13.326Z,0.00
2023-05-19T05:19:13.413Z,0.00
2023-05-19T05:20:13.396Z,0.00
2023-05-19T05:21:13.390Z,0.00
2023-05-19T05:22:13.449Z,0.00
2023-05-19T05:23:13.483Z,0.00
2023-05-19T05:24:13.555Z,0.00
2023-05-19T05:25:13.567Z,0.00
2023-05-19T05:26:13.640Z,0.00
2023-05-19T05:27:13.681Z,0.00
2023-05-19T05:28:13.765Z,2.39
2023-05-19T05:29:13.787Z,24.21
2023-05-19T05:30:13.877Z,28.48
2023-05-19T05:31:13.885Z,29.07
2023-05-19T05:32:13.933Z,29.30
2023-05-19T05:33:14.149Z,31.14
2023-05-19T05:34:14.046Z,25.00
2023-05-19T05:35:14.102Z,29.14
2023-05-19T05:36:14.145Z,32.15
2023-05-19T05:37:15.348Z,35.05
2023-05-19T05:38:14.205Z,27.13
2023-05-19T05:39:14.281Z,26.73
2023-05-19T05:40:14.323Z,25.71
2023-05-19T05:41:14.430Z,39.74
2023-05-19T05:42:14.455Z,36.59
2023-05-19T05:43:14.505Z,40.09
2023-05-19T05:44:14.584Z,32.78
2023-05-19T05:45:14.583Z,31.90
2023-05-19T05:46:14.740Z,26.55
2023-05-19T05:47:14.716Z,32.94
2023-05-19T05:48:14.817Z,25.04
2023-05-19T05:49:14.860Z,25.91
2023-05-19T05:50:14.863Z,30.39
2023-05-19T05:51:14.924Z,34.65
2023-05-19T05:52:15.002Z,25.59
2023-05-19T05:53:15.039Z,25.16
2023-05-19T05:54:15.139Z,31.82
2023-05-19T05:55:15.164Z,26.52
2023-05-19T05:56:15.305Z,28.23
2023-05-19T05:57:15.229Z,26.96
2023-05-19T05:58:15.288Z,26.97
2023-05-19T05:59:15.373Z,32.31
2023-05-19T06:00:15.473Z,26.00
2023-05-19T06:01:15.531Z,28.77
2023-05-19T06:02:15.596Z,29.19
2023-05-19T06:03:15.696Z,26.11
2023-05-19T06:04:15.646Z,30.24
2023-05-19T06:05:15.759Z,33.76
2023-05-19T06:06:15.741Z,34.37
2023-05-19T06:07:16.340Z,39.80
2023-05-19T06:08:15.878Z,35.44
2023-05-19T06:09:15.947Z,40.30
2023-05-19T06:10:15.997Z,37.22
2023-05-19T06:11:16.047Z,38.68
2023-05-19T06:12:16.102Z,42.31
2023-05-19T06:13:16.161Z,28.74
2023-05-19T06:14:16.208Z,37.28
2023-05-19T06:15:16.284Z,32.00
2023-05-19T06:16:17.057Z,36.92
2023-05-19T06:17:16.387Z,33.87
2023-05-19T06:18:16.454Z,32.58
2023-05-19T06:19:16.521Z,34.19
2023-05-19T06:20:16.536Z,39.00
2023-05-19T06:21:16.665Z,26.10
2023-05-19T06:22:16.677Z,31.78
2023-05-19T06:23:16.746Z,32.35
2023-05-19T06:24:16.772Z,35.46
2023-05-19T06:25:16.879Z,32.51
2023-05-19T06:26:16.882Z,30.14
2023-05-19T06:27:16.959Z,33.19
2023-05-19T06:28:17.018Z,34.34
2023-05-19T06:29:17.081Z,33.61
2023-05-19T06:30:17.072Z,37.33
2023-05-19T06:31:17.199Z,33.99
2023-05-19T06:32:17.171Z,33.65
2023-05-19T06:33:17.246Z,37.52
2023-05-19T06:34:17.331Z,27.03
2023-05-19T06:35:17.319Z,32.25
2023-05-19T06:36:17.537Z,32.04
2023-05-19T06:37:17.467Z,28.66
2023-05-19T06:38:17.528Z,36.71
2023-05-19T06:39:17.553Z,31.90
2023-05-19T06:40:17.620Z,29.99
2023-05-19T06:41:17.683Z,27.62
2023-05-19T06:42:17.710Z,28.35
2023-05-19T06:43:17.782Z,26.92
2023-05-19T06:44:19.833Z,27.96
2023-05-19T06:45:17.841Z,32.80
2023-05-19T06:46:17.937Z,29.28
2023-05-19T06:47:17.869Z,28.21
2023-05-19T06:48:17.930Z,28.02
2023-05-19T06:49:17.796Z,27.33
2023-05-19T06:50:17.812Z,32.93
2023-05-19T06:51:17.791Z,28.21
2023-05-19T06:52:17.766Z,31.99
2023-05-19T06:53:17.806Z,29.43
2023-05-19T06:54:17.769Z,26.99
2023-05-19T06:55:17.739Z,25.87
2023-05-19T06:56:17.792Z,29.82
2023-05-19T06:57:17.740Z,31.09
2023-05-19T06:58:17.752Z,26.89
2023-05-19T06:59:17.728Z,25.81
2023-05-19T07:00:19.372Z,25.53
2023-05-19T07:01:17.753Z,25.87
2023-05-19T07:02:17.762Z,26.73
2023-05-19T07:03:17.827Z,29.28
2023-05-19T07:04:17.660Z,26.41
2023-05-19T07:05:17.691Z,16.02
2023-05-19T07:06:17.653Z,26.58
2023-05-19T07:07:17.695Z,31.53
2023-05-19T07:08:17.665Z,32.78
2023-05-19T07:09:17.815Z,35.38
2023-05-19T07:10:17.665Z,33.60
2023-05-19T07:11:17.678Z,30.89
2023-05-19T07:12:17.756Z,33.26
2023-05-19T07:13:17.670Z,34.76
2023-05-19T07:14:17.658Z,25.97
2023-05-19T07:15:17.655Z,25.00
2023-05-19T07:16:17.666Z,30.26
2023-05-19T07:17:17.630Z,29.78
2023-05-19T07:18:17.621Z,31.23
2023-05-19T07:19:17.632Z,46.43
2023-05-19T07:20:17.592Z,30.43
2023-05-19T07:21:17.565Z,35.68
2023-05-19T07:22:17.584Z,29.88
2023-05-19T07:23:17.613Z,37.56
2023-05-19T07:24:17.584Z,44.56
2023-05-19T07:25:17.578Z,34.63
2023-05-19T07:26:17.532Z,42.76
2023-05-19T07:27:17.549Z,41.98
2023-05-19T07:28:17.562Z,39.10
2023-05-19T07:29:17.516Z,46.94
2023-05-19T07:30:17.553Z,47.04
2023-05-19T07:31:17.523Z,53.50
2023-05-19T07:32:17.625Z,47.01
2023-05-19T07:33:17.558Z,55.45
2023-05-19T07:34:17.569Z,33.79
2023-05-19T07:35:17.643Z,33.04
2023-05-19T07:36:17.696Z,50.33
2023-05-19T07:37:17.754Z,42.76
2023-05-19T07:38:17.776Z,51.61
2023-05-19T07:39:17.873Z,42.47
2023-05-19T07:40:17.890Z,34.51
2023-05-19T07:41:17.958Z,51.59
2023-05-19T07:42:18.006Z,47.37
2023-05-19T07:43:18.062Z,45.27
2023-05-19T07:44:18.069Z,46.51
2023-05-19T07:45:18.137Z,56.01
2023-05-19T07:46:18.289Z,36.45
2023-05-19T07:47:18.230Z,42.41
2023-05-19T07:48:18.319Z,41.16
2023-05-19T07:49:18.371Z,31.21
2023-05-19T07:50:18.466Z,27.72
2023-05-19T07:51:18.474Z,42.96
2023-05-19T07:52:18.521Z,49.49
2023-05-19T07:53:18.577Z,42.10
2023-05-19T07:54:18.674Z,46.09
2023-05-19T07:55:18.689Z,49.66
2023-05-19T07:56:18.814Z,46.37
2023-05-19T07:57:18.839Z,45.39
2023-05-19T07:58:18.861Z,41.59
2023-05-19T07:59:18.909Z,39.91
2023-05-19T08:00:18.918Z,30.49
2023-05-19T08:01:19.004Z,39.87
2023-05-19T08:02:19.060Z,51.88
2023-05-19T08:03:19.384Z,47.91
2023-05-19T08:04:19.252Z,51.88
2023-05-19T08:05:19.211Z,45.38
2023-05-19T08:06:19.233Z,58.23
2023-05-19T08:07:19.275Z,48.10
2023-05-19T08:08:19.308Z,45.05
2023-05-19T08:09:19.388Z,45.18
2023-05-19T08:10:19.394Z,51.19
2023-05-19T08:11:19.469Z,55.69
2023-05-19T08:12:19.571Z,59.58
2023-05-19T08:13:19.577Z,67.13
2023-05-19T08:14:19.632Z,65.84
2023-05-19T08:15:19.635Z,71.06
2023-05-19T08:16:19.808Z,70.87
2023-05-19T08:17:19.751Z,74.94
2023-05-19T08:18:19.776Z,72.99
2023-05-19T08:19:19.906Z,74.24
2023-05-19T08:20:19.846Z,71.88
2023-05-19T08:21:19.900Z,74.49
2023-05-19T08:22:19.912Z,71.45
2023-05-19T08:23:19.978Z,80.26
2023-05-19T08:24:20.003Z,79.00
2023-05-19T08:25:20.070Z,81.98
2023-05-19T08:26:20.108Z,84.96
2023-05-19T08:27:20.110Z,79.03
2023-05-19T08:28:20.130Z,77.89
2023-05-19T08:29:20.281Z,79.06
2023-05-19T08:30:20.248Z,75.39
2023-05-19T08:31:20.343Z,74.82
2023-05-19T08:32:20.315Z,75.26
2023-05-19T08:33:20.358Z,74.22
2023-05-19T08:34:20.358Z,72.37
2023-05-19T08:35:20.391Z,64.97
2023-05-19T08:36:20.551Z,65.18
2023-05-19T08:37:20.471Z,65.99
2023-05-19T08:38:20.506Z,64.69
2023-05-19T08:39:20.540Z,77.45
2023-05-19T08:40:20.569Z,75.33
2023-05-19T08:41:20.602Z,73.59
2023-05-19T08:42:20.608Z,75.78
2023-05-19T08:43:20.688Z,74.73
2023-05-19T08:44:20.698Z,80.13
2023-05-19T08:45:20.729Z,78.13
2023-05-19T08:46:20.774Z,85.66
2023-05-19T08:47:20.777Z,83.90
2023-05-19T08:48:20.835Z,83.74
2023-05-19T08:49:20.849Z,89.16
2023-05-19T08:50:20.873Z,85.51
2023-05-19T08:51:20.906Z,84.98
2023-05-19T08:52:21.031Z,83.48
2023-05-19T08:54:21.994Z,83.25
2023-05-19T08:55:20.978Z,82.20
2023-05-19T08:56:21.005Z,84.00
2023-05-19T08:57:20.950Z,84.04
2023-05-19T08:58:20.974Z,86.75
2023-05-19T08:59:20.977Z,88.78
2023-05-19T09:00:20.950Z,88.25
2023-05-19T09:01:20.978Z,84.51
2023-05-19T09:02:20.903Z,80.72
2023-05-19T09:03:24.072Z,86.81
2023-05-19T09:04:21.049Z,91.01
2023-05-19T09:05:20.914Z,89.83
2023-05-19T09:06:20.873Z,84.95
2023-05-19T09:07:20.874Z,89.22
2023-05-19T09:08:20.874Z,89.57
2023-05-19T09:09:20.881Z,96.51
2023-05-19T09:10:20.871Z,96.60
2023-05-19T09:11:20.857Z,97.20
2023-05-19T09:12:20.847Z,96.60
2023-05-19T09:13:20.871Z,96.32
2023-05-19T09:14:20.871Z,95.46
2023-05-19T09:15:20.871Z,97.59
2023-05-19T09:16:20.907Z,98.29
2023-05-19T09:17:20.841Z,98.76
2023-05-19T09:18:20.835Z,100.70
2023-05-19T09:19:20.871Z,97.52
2023-05-19T09:20:20.829Z,102.80
2023-05-19T09:21:20.804Z,102.93
2023-05-19T09:22:20.790Z,103.17
2023-05-19T09:23:20.788Z,99.46
2023-05-19T09:24:20.772Z,102.47
2023-05-19T09:25:20.781Z,104.11
2023-05-19T09:26:20.768Z,105.20
2023-05-19T09:27:20.737Z,106.51
2023-05-19T09:28:20.741Z,104.57
2023-05-19T09:29:20.754Z,105.55
2023-05-19T09:30:20.747Z,104.85
2023-05-19T09:31:20.721Z,105.82
2023-05-19T09:32:20.833Z,108.67
2023-05-19T09:33:20.935Z,108.43
2023-05-19T09:34:20.718Z,108.76
2023-05-19T09:35:20.720Z,105.84
2023-05-19T09:36:20.714Z,108.45
2023-05-19T09:37:20.698Z,107.96
2023-05-19T09:38:20.695Z,105.92
2023-05-19T09:39:20.662Z,106.67
2023-05-19T09:40:20.700Z,107.83
2023-05-19T09:41:20.674Z,112.36
2023-05-19T09:42:20.661Z,109.76
2023-05-19T09:43:20.674Z,109.83
2023-05-19T09:44:20.635Z,109.63
2023-05-19T09:45:20.641Z,110.64
2023-05-19T09:46:20.716Z,109.32
2023-05-19T09:47:20.603Z,111.78
2023-05-19T09:48:20.650Z,111.50
2023-05-19T09:49:20.797Z,109.27
2023-05-19T09:50:20.589Z,108.12
2023-05-19T09:51:20.582Z,110.33
2023-05-19T09:52:20.572Z,113.43
2023-05-19T09:53:20.591Z,109.24
2023-05-19T09:54:20.573Z,110.77
2023-05-19T09:55:20.559Z,110.00
2023-05-19T09:56:20.557Z,108.58
2023-05-19T09:57:20.542Z,112.88
2023-05-19T09:58:20.530Z,109.75
2023-05-19T09:59:20.585Z,108.33
2023-05-19T10:00:20.524Z,109.67
2023-05-19T10:01:20.592Z,111.68
2023-05-19T10:02:20.533Z,109.08
2023-05-19T10:03:20.545Z,108.31
2023-05-19T10:04:20.509Z,108.77
2023-05-19T10:05:20.792Z,111.34
2023-05-19T10:06:20.504Z,113.60
2023-05-19T10:07:20.547Z,111.08
2023-05-19T10:08:20.599Z,109.32
2023-05-19T10:09:20.553Z,108.95
2023-05-19T10:10:20.648Z,108.03
2023-05-19T10:11:20.639Z,113.08
2023-05-19T10:12:20.652Z,107.55
2023-05-19T10:13:20.686Z,111.99
2023-05-19T10:14:20.709Z,112.97
2023-05-19T10:15:23.140Z,114.29
2023-05-19T10:16:20.787Z,112.19
2023-05-19T10:17:20.734Z,111.62
2023-05-19T10:18:20.723Z,114.10
2023-05-19T10:19:20.790Z,113.00
2023-05-19T10:20:20.735Z,110.67
2023-05-19T10:21:20.680Z,114.26
2023-05-19T10:22:20.706Z,110.33
2023-05-19T10:23:20.682Z,113.16
2023-05-19T10:24:20.672Z,110.70
2023-05-19T10:25:20.705Z,114.95
2023-05-19T10:26:20.670Z,116.75
2023-05-19T10:27:20.690Z,110.82
2023-05-19T10:28:20.651Z,113.59
2023-05-19T10:29:20.639Z,112.97
2023-05-19T10:30:20.645Z,114.40
2023-05-19T10:31:20.597Z,116.82
2023-05-19T10:32:20.697Z,114.84
2023-05-19T10:33:20.658Z,113.75
2023-05-19T10:34:20.608Z,114.88
2023-05-19T10:35:20.586Z,114.91
2023-05-19T10:36:20.604Z,115.82
2023-05-19T10:37:20.630Z,113.16
2023-05-19T10:38:20.594Z,116.21
2023-05-19T10:39:20.558Z,115.93
2023-05-19T10:40:20.562Z,112.57
2023-05-19T10:41:20.593Z,117.51
2023-05-19T10:42:20.560Z,115.54
2023-05-19T10:43:20.526Z,116.23
2023-05-19T10:44:20.527Z,117.90
2023-05-19T10:45:20.524Z,114.62
2023-05-19T10:46:20.548Z,118.07
2023-05-19T10:47:20.644Z,115.59
2023-05-19T10:48:20.527Z,115.75
2023-05-19T10:49:20.521Z,114.34
2023-05-19T10:50:20.493Z,116.89
2023-05-19T10:51:20.479Z,119.42
2023-05-19T10:52:20.482Z,114.61
2023-05-19T10:53:20.492Z,116.51
2023-05-19T10:54:20.472Z,117.19
2023-05-19T10:55:20.485Z,118.19
2023-05-19T10:56:20.462Z,115.60
2023-05-19T10:57:20.448Z,118.77
2023-05-19T10:58:20.441Z,117.20
2023-05-19T10:59:20.452Z,117.13
2023-05-19T11:00:20.419Z,115.22
2023-05-19T11:01:20.426Z,116.27
2023-05-19T11:02:20.533Z,114.46
2023-05-19T11:03:20.465Z,113.18
2023-05-19T11:04:20.425Z,117.75
2023-05-19T11:05:20.390Z,119.29
2023-05-19T11:06:20.409Z,116.23
2023-05-19T11:07:20.392Z,119.32
2023-05-19T11:08:20.381Z,118.39
2023-05-19T11:09:31.119Z,117.69
2023-05-19T11:10:21.611Z,117.94
2023-05-19T11:11:20.389Z,118.42
2023-05-19T11:12:20.349Z,118.78
2023-05-19T11:13:20.367Z,118.08
2023-05-19T11:14:20.353Z,115.63
2023-05-19T11:15:20.325Z,119.58
2023-05-19T11:16:20.397Z,117.58
2023-05-19T11:17:20.319Z,116.93
2023-05-19T11:18:20.329Z,119.38
2023-05-19T11:19:20.412Z,122.12
2023-05-19T11:20:20.292Z,116.85
2023-05-19T11:21:20.395Z,120.69
2023-05-19T11:22:20.298Z,117.50
2023-05-19T11:23:20.350Z,120.37
2023-05-19T11:24:20.303Z,116.22
2023-05-19T11:25:20.269Z,118.15
2023-05-19T11:26:20.270Z,120.24
2023-05-19T11:27:20.276Z,118.96
2023-05-19T11:28:20.310Z,120.69
2023-05-19T11:29:20.228Z,120.41
2023-05-19T11:30:20.340Z,121.72
2023-05-19T11:31:20.225Z,119.43
2023-05-19T11:32:20.308Z,122.67
2023-05-19T11:33:20.331Z,118.74
2023-05-19T11:34:20.270Z,122.33
2023-05-19T11:35:20.297Z,116.72
2023-05-19T11:36:20.305Z,120.34
2023-05-19T11:37:20.341Z,114.70
2023-05-19T11:38:20.354Z,121.95
2023-05-19T11:39:20.336Z,121.54
2023-05-19T11:40:20.380Z,119.18
2023-05-19T11:41:20.950Z,115.00
2023-05-19T11:42:20.427Z,120.24
2023-05-19T11:43:20.412Z,119.69
2023-05-19T11:44:20.394Z,118.40
2023-05-19T11:45:20.432Z,119.13
2023-05-19T11:46:20.475Z,122.78
2023-05-19T11:47:20.452Z,123.76
2023-05-19T11:48:20.474Z,121.46
2023-05-19T11:49:20.459Z,121.96
2023-05-19T11:50:20.667Z,120.30
2023-05-19T11:51:20.515Z,120.26
2023-05-19T11:52:20.505Z,124.48
2023-05-19T11:53:20.548Z,121.13
2023-05-19T11:54:20.590Z,121.40
2023-05-19T11:55:20.542Z,116.35
2023-05-19T11:56:20.699Z,122.00
2023-05-19T11:57:20.630Z,118.23
2023-05-19T11:58:20.591Z,118.66
2023-05-19T11:59:20.606Z,122.48
2023-05-19T12:00:20.586Z,121.38
2023-05-19T12:01:20.582Z,120.78
2023-05-19T12:02:20.649Z,122.55
2023-05-19T12:03:20.716Z,121.51
2023-05-19T12:04:20.627Z,122.97
2023-05-19T12:05:20.702Z,123.57
2023-05-19T12:06:20.721Z,121.67
2023-05-19T12:07:20.662Z,119.20
2023-05-19T12:08:20.675Z,117.60
2023-05-19T12:09:20.695Z,117.20
2023-05-19T12:10:20.710Z,110.42
2023-05-19T12:11:20.694Z,106.05
2023-05-19T12:12:20.737Z,99.27
2023-05-19T12:13:20.763Z,98.71
2023-05-19T12:14:20.802Z,97.22
2023-05-19T12:15:20.737Z,94.11
2023-05-19T12:16:20.870Z,86.64
2023-05-19T12:17:20.827Z,84.77
2023-05-19T12:18:20.822Z,84.38
2023-05-19T12:19:20.849Z,77.48
2023-05-19T12:20:20.867Z,72.44
2023-05-19T12:21:20.889Z,70.79
2023-05-19T12:22:20.863Z,63.60
2023-05-19T12:23:20.920Z,56.76
2023-05-19T12:24:20.920Z,50.12
2023-05-19T12:25:20.924Z,52.84
2023-05-19T12:26:20.933Z,48.90
2023-05-19T12:27:20.937Z,45.34
2023-05-19T12:28:20.953Z,41.22
2023-05-19T12:29:20.992Z,35.30
2023-05-19T12:30:20.991Z,38.94
2023-05-19T12:31:21.062Z,39.69
2023-05-19T12:32:21.022Z,36.65
2023-05-19T12:33:21.047Z,25.00
2023-05-19T12:34:21.048Z,28.87
2023-05-19T12:35:21.056Z,30.11
2023-05-19T12:36:21.187Z,31.09
2023-05-19T12:37:21.069Z,25.43
2023-05-19T12:38:21.108Z,27.37
2023-05-19T12:39:21.551Z,28.63
2023-05-19T12:40:21.108Z,26.54
2023-05-19T12:41:21.141Z,25.75
2023-05-19T12:42:21.126Z,26.86
2023-05-19T12:43:21.174Z,26.95
2023-05-19T12:44:21.159Z,26.79
2023-05-19T12:45:21.163Z,29.10
2023-05-19T12:46:21.221Z,27.72
2023-05-19T12:47:21.181Z,26.46
2023-05-19T12:48:21.334Z,29.07
2023-05-19T12:49:21.218Z,30.75
2023-05-19T12:50:21.256Z,31.83
2023-05-19T12:51:21.254Z,26.99
2023-05-19T12:52:21.250Z,26.13
2023-05-19T12:53:21.295Z,29.90
2023-05-19T12:54:21.294Z,25.00
2023-05-19T12:55:21.263Z,25.00
2023-05-19T12:56:21.323Z,29.82
2023-05-19T12:57:21.349Z,33.15
2023-05-19T12:58:21.322Z,30.44
2023-05-19T12:59:37.046Z,30.39
2023-05-19T13:00:22.434Z,30.55
2023-05-19T13:01:21.399Z,31.48
2023-05-19T13:02:21.438Z,30.43
2023-05-19T13:03:21.499Z,28.19
2023-05-19T13:04:21.336Z,21.38
2023-05-19T13:05:21.295Z,25.00
2023-05-19T13:06:21.303Z,27.36
2023-05-19T13:07:21.336Z,31.63
2023-05-19T13:08:21.291Z,36.51
2023-05-19T13:09:21.293Z,37.51
2023-05-19T13:10:21.284Z,32.34
2023-05-19T13:11:21.298Z,27.48
2023-05-19T13:12:21.240Z,26.17
2023-05-19T13:13:21.290Z,35.13
2023-05-19T13:14:21.256Z,30.10
2023-05-19T13:15:21.240Z,28.57
2023-05-19T13:16:21.285Z,32.54
2023-05-19T13:17:21.242Z,28.56
2023-05-19T13:18:21.264Z,26.68
2023-05-19T13:19:25.444Z,33.31
2023-05-19T13:20:21.218Z,33.48
2023-05-19T13:21:21.233Z,33.48
2023-05-19T13:22:21.179Z,33.91
2023-05-19T13:23:21.210Z,31.24
2023-05-19T13:24:21.216Z,36.96
2023-05-19T13:25:21.215Z,29.96
2023-05-19T13:26:21.152Z,33.22
2023-05-19T13:27:21.197Z,25.00
2023-05-19T13:28:21.224Z,25.00
2023-05-19T13:29:21.176Z,36.22
2023-05-19T13:30:21.137Z,27.08
2023-05-19T13:31:21.142Z,32.81
2023-05-19T13:32:21.156Z,33.45
2023-05-19T13:33:21.122Z,34.48
2023-05-19T13:34:21.117Z,40.18
2023-05-19T13:35:21.088Z,34.79
2023-05-19T13:36:21.110Z,28.94
2023-05-19T13:37:21.110Z,34.18
2023-05-19T13:38:21.096Z,32.39
2023-05-19T13:39:21.116Z,34.10
2023-05-19T13:40:21.103Z,27.04
2023-05-19T13:41:21.098Z,34.85
2023-05-19T13:42:21.093Z,35.49
2023-05-19T13:43:21.051Z,33.58
2023-05-19T13:44:21.054Z,28.11
2023-05-19T13:45:21.021Z,29.84
2023-05-19T13:46:29.401Z,35.91
2023-05-19T13:47:22.092Z,36.01
2023-05-19T13:48:21.070Z,31.37
2023-05-19T13:49:21.067Z,33.69
2023-05-19T13:50:21.010Z,31.74
2023-05-19T13:51:21.041Z,40.35
2023-05-19T13:52:21.013Z,34.19
2023-05-19T13:53:21.015Z,40.55
2023-05-19T13:54:20.996Z,27.35
2023-05-19T13:55:20.999Z,33.35
2023-05-19T13:56:20.992Z,29.55
2023-05-19T13:57:20.952Z,28.18
2023-05-19T13:58:20.965Z,29.47
2023-05-19T13:59:20.966Z,29.93
2023-05-19T14:00:20.963Z,35.26
2023-05-19T14:01:20.946Z,42.57
2023-05-19T14:02:20.954Z,47.27
2023-05-19T14:03:21.001Z,48.86
2023-05-19T14:04:21.088Z,53.59
2023-05-19T14:05:20.937Z,55.20
2023-05-19T14:06:20.930Z,64.26
2023-05-19T14:07:20.896Z,64.34
2023-05-19T14:08:20.914Z,79.94
2023-05-19T14:09:20.904Z,88.43
2023-05-19T14:10:20.859Z,97.64
2023-05-19T14:11:20.874Z,99.51
2023-05-19T14:12:25.269Z,95.56
2023-05-19T14:13:32.332Z,95.93
2023-05-19T14:14:21.846Z,95.97
2023-05-19T14:15:20.848Z,98.03
2023-05-19T14:16:20.852Z,100.99
2023-05-19T14:17:20.833Z,106.61
2023-05-19T14:18:20.825Z,116.86
2023-05-19T14:19:20.908Z,116.09
2023-05-19T14:20:20.792Z,121.29
2023-05-19T14:21:20.842Z,121.65
2023-05-19T14:22:20.804Z,121.02
2023-05-19T14:23:20.798Z,123.54
2023-05-19T14:24:20.814Z,129.74
2023-05-19T14:25:20.758Z,128.75
2023-05-19T14:26:20.797Z,129.28
2023-05-19T14:27:20.772Z,131.07
2023-05-19T14:28:20.726Z,129.89
2023-05-19T14:29:20.759Z,132.08
2023-05-19T14:30:20.755Z,131.53
2023-05-19T14:31:20.808Z,134.83
2023-05-19T14:32:20.800Z,136.06
2023-05-19T14:33:20.711Z,140.87
2023-05-19T14:34:20.713Z,142.42
2023-05-19T14:35:20.723Z,142.65
2023-05-19T14:36:20.753Z,144.21
2023-05-19T14:37:20.706Z,145.67
2023-05-19T14:38:20.740Z,147.72
2023-05-19T14:39:20.684Z,149.10
2023-05-19T14:40:20.685Z,148.69
2023-05-19T14:41:20.689Z,148.78
2023-05-19T14:42:20.650Z,153.54
2023-05-19T14:43:20.653Z,151.96
2023-05-19T14:44:20.687Z,149.86
2023-05-19T14:45:20.637Z,156.37
2023-05-19T14:46:20.824Z,154.73
2023-05-19T14:47:20.635Z,154.03
2023-05-19T14:48:20.672Z,158.06
2023-05-19T14:49:20.622Z,155.58
2023-05-19T14:50:20.601Z,156.53
2023-05-19T14:51:20.609Z,158.51
2023-05-19T14:52:20.617Z,157.08
2023-05-19T14:53:20.599Z,158.55
2023-05-19T14:54:20.598Z,160.63
2023-05-19T14:55:20.556Z,157.16
2023-05-19T14:56:20.585Z,161.24
2023-05-19T14:57:20.575Z,160.90
2023-05-19T14:58:28.777Z,164.44
2023-05-19T14:59:21.602Z,164.79
2023-05-19T15:00:20.550Z,164.90
2023-05-19T15:01:20.608Z,164.63
2023-05-19T15:02:20.531Z,168.39
2023-05-19T15:03:20.505Z,168.26
2023-05-19T15:04:20.614Z,168.20
2023-05-19T15:05:20.500Z,167.58
2023-05-19T15:06:20.520Z,171.84
2023-05-19T15:07:20.494Z,170.59
2023-05-19T15:08:20.499Z,170.06
2023-05-19T15:09:20.510Z,169.81
2023-05-19T15:10:20.486Z,170.89
2023-05-19T15:11:20.505Z,167.91
2023-05-19T15:12:20.478Z,173.74
2023-05-19T15:13:20.433Z,172.33
2023-05-19T15:14:20.452Z,172.36
2023-05-19T15:15:20.440Z,171.21
2023-05-19T15:16:20.472Z,172.05
2023-05-19T15:17:20.572Z,173.28
2023-05-19T15:18:20.417Z,175.94
2023-05-19T15:19:20.531Z,172.08
2023-05-19T15:20:20.420Z,171.91
2023-05-19T15:21:20.406Z,172.81
2023-05-19T15:22:20.405Z,174.67
2023-05-19T15:23:20.437Z,175.41
2023-05-19T15:24:20.417Z,172.89
2023-05-19T15:25:20.412Z,178.62
2023-05-19T15:26:20.359Z,177.47
2023-05-19T15:27:20.380Z,174.43
2023-05-19T15:28:20.345Z,178.08
2023-05-19T15:29:20.383Z,179.41
2023-05-19T15:30:20.369Z,176.68
2023-05-19T15:31:20.370Z,176.84
2023-05-19T15:32:20.341Z,181.35
2023-05-19T15:33:20.337Z,178.81
2023-05-19T15:34:20.344Z,177.04
2023-05-19T15:35:20.312Z,175.78
2023-05-19T15:36:20.285Z,176.43
2023-05-19T15:37:20.334Z,179.30
2023-05-19T15:38:20.439Z,175.87
2023-05-19T15:39:20.280Z,177.79
2023-05-19T15:40:20.308Z,177.53
2023-05-19T15:41:20.283Z,176.72
2023-05-19T15:42:20.344Z,179.76
2023-05-19T15:43:20.320Z,180.80
2023-05-19T15:44:20.352Z,179.72
2023-05-19T15:45:20.326Z,179.37
2023-05-19T15:46:20.382Z,181.65
2023-05-19T15:47:20.339Z,180.71
2023-05-19T15:48:20.333Z,178.70
2023-05-19T15:49:20.346Z,181.15
2023-05-19T15:50:20.336Z,182.16
2023-05-19T15:51:20.363Z,181.37
2023-05-19T15:52:20.372Z,179.28
2023-05-19T15:53:20.376Z,180.45
2023-05-19T15:54:20.425Z,178.98
2023-05-19T15:55:20.391Z,182.77
2023-05-19T15:56:20.395Z,179.89
2023-05-19T15:57:20.463Z,182.64
2023-05-19T15:58:20.419Z,183.79
2023-05-19T15:59:20.460Z,182.00
2023-05-19T16:00:20.490Z,182.29
2023-05-19T16:01:20.513Z,179.55
2023-05-19T16:02:20.495Z,179.68
2023-05-19T16:03:20.520Z,182.36
2023-05-19T16:04:20.536Z,182.32
2023-05-19T16:05:20.474Z,180.05
2023-05-19T16:06:20.461Z,179.81
2023-05-19T16:07:20.488Z,181.78
2023-05-19T16:08:20.506Z,182.17
2023-05-19T16:09:20.498Z,180.58
2023-05-19T16:10:20.505Z,182.20
2023-05-19T16:11:20.488Z,178.35
2023-05-19T16:12:20.509Z,181.31
2023-05-19T16:13:20.524Z,180.17
2023-05-19T16:14:20.510Z,180.27
2023-05-19T16:15:20.552Z,183.13
2023-05-19T16:16:20.545Z,180.26
2023-05-19T16:17:20.521Z,184.12
2023-05-19T16:18:20.556Z,182.02
2023-05-19T16:19:20.615Z,182.42
2023-05-19T16:20:20.573Z,183.97
2023-05-19T16:21:20.568Z,180.52
2023-05-19T16:22:21.823Z,179.09
2023-05-19T16:23:20.594Z,179.89
2023-05-19T16:24:20.619Z,180.18
2023-05-19T16:25:20.600Z,179.39
2023-05-19T16:26:20.607Z,180.97
2023-05-19T16:27:20.590Z,182.46
2023-05-19T16:28:22.345Z,181.37
2023-05-19T16:29:20.760Z,181.05
2023-05-19T16:30:20.736Z,181.57
2023-05-19T16:31:20.857Z,184.34
2023-05-19T16:32:20.770Z,182.03
2023-05-19T16:33:20.772Z,180.00
2023-05-19T16:34:20.758Z,184.75
2023-05-19T16:35:20.904Z,181.30
2023-05-19T16:36:20.884Z,180.29
2023-05-19T16:37:20.758Z,180.86
2023-05-19T16:38:20.780Z,183.68
2023-05-19T16:39:20.810Z,180.78
2023-05-19T16:40:20.793Z,185.00
2023-05-19T16:41:20.801Z,183.94
2023-05-19T16:42:20.815Z,179.56
2023-05-19T16:43:20.821Z,178.47
2023-05-19T16:44:20.829Z,180.54
2023-05-19T16:45:20.837Z,180.83
2023-05-19T16:46:20.904Z,181.96
2023-05-19T16:47:20.822Z,180.79
2023-05-19T16:48:20.954Z,183.17
2023-05-19T16:49:20.866Z,179.49
2023-05-19T16:50:20.854Z,180.54
2023-05-19T16:51:20.843Z,179.50
2023-05-19T16:52:20.902Z,181.94
2023-05-19T16:53:20.898Z,177.87
2023-05-19T16:54:20.878Z,183.11
2023-05-19T16:55:20.891Z,179.49
2023-05-19T16:56:20.938Z,179.69
2023-05-19T16:57:20.894Z,181.28
2023-05-19T16:58:20.893Z,181.10
2023-05-19T16:59:20.908Z,180.47
2023-05-19T17:00:20.936Z,180.43
